sensor_id;sensor_type;location;lat;lon;timestamp;pressure;altitude;pressure_sealevel;temperature;humidity
36692;BME280;22678;52.052;4.242;2023-02-16T00:01:25;102400.13;;;7.06;78.13
36692;BME280;22678;52.052;4.242;2023-02-16T00:03:53;102395.72;;;7.05;78.08
36692;BME280;22678;52.052;4.242;2023-02-16T00:06:19;102390.25;;;6.97;78.22
36692;BME280;22678;52.052;4.242;2023-02-16T00:08:46;102384.94;;;6.94;78.33
36692;BME280;22678;52.052;4.242;2023-02-16T00:11:16;102389.38;;;6.96;78.24
36692;BME280;22678;52.052;4.242;2023-02-16T00:14:00;102385.03;;;6.97;78.47
36692;BME280;22678;52.052;4.242;2023-02-16T00:16:26;102383.25;;;6.96;78.39
36692;BME280;22678;52.052;4.242;2023-02-16T00:18:52;102383.25;;;6.96;78.63
36692;BME280;22678;52.052;4.242;2023-02-16T00:21:18;102385.94;;;6.99;78.62
36692;BME280;22678;52.052;4.242;2023-02-16T00:23:44;102380.66;;;6.97;78.99
36692;BME280;22678;52.052;4.242;2023-02-16T00:26:21;102379.00;;;6.99;78.86
36692;BME280;22678;52.052;4.242;2023-02-16T00:28:55;102362.13;;;6.90;78.84
36692;BME280;22678;52.052;4.242;2023-02-16T00:31:25;102382.47;;;6.98;78.96
36692;BME280;22678;52.052;4.242;2023-02-16T00:33:53;102365.75;;;6.95;79.26
36692;BME280;22678;52.052;4.242;2023-02-16T00:36:19;102365.75;;;6.95;79.21
36692;BME280;22678;52.052;4.242;2023-02-16T00:38:45;102372.81;;;6.97;79.31
36692;BME280;22678;52.052;4.242;2023-02-16T00:41:18;102372.69;;;6.93;79.28
36692;BME280;22678;52.052;4.242;2023-02-16T00:46:55;102371.91;;;6.95;79.84
36692;BME280;22678;52.052;4.242;2023-02-16T00:49:21;102361.31;;;6.91;79.69
36692;BME280;22678;52.052;4.242;2023-02-16T00:51:47;102370.25;;;6.99;79.76
36692;BME280;22678;52.052;4.242;2023-02-16T00:54:13;102369.25;;;6.94;79.83
36692;BME280;22678;52.052;4.242;2023-02-16T00:56:39;102364.00;;;6.94;79.64
36692;BME280;22678;52.052;4.242;2023-02-16T00:59:08;102370.03;;;6.91;79.84
36692;BME280;22678;52.052;4.242;2023-02-16T01:01:36;102371.81;;;6.92;79.88
36692;BME280;22678;52.052;4.242;2023-02-16T01:04:05;102377.19;;;6.97;79.80
36692;BME280;22678;52.052;4.242;2023-02-16T01:06:31;102383.25;;;6.96;79.86
36692;BME280;22678;52.052;4.242;2023-02-16T01:09:17;102381.47;;;6.95;79.97
36692;BME280;22678;52.052;4.242;2023-02-16T01:12:04;102377.91;;;6.93;80.45
36692;BME280;22678;52.052;4.242;2023-02-16T01:14:32;102360.25;;;6.86;80.19
36692;BME280;22678;52.052;4.242;2023-02-16T01:16:58;102370.81;;;6.89;80.34
36692;BME280;22678;52.052;4.242;2023-02-16T01:19:24;102356.72;;;6.83;80.32
36692;BME280;22678;52.052;4.242;2023-02-16T01:21:49;102344.38;;;6.79;80.64
36692;BME280;22678;52.052;4.242;2023-02-16T01:24:14;102356.75;;;6.85;80.53
36692;BME280;22678;52.052;4.242;2023-02-16T01:26:46;102357.59;;;6.84;80.84
36692;BME280;22678;52.052;4.242;2023-02-16T01:29:13;102362.19;;;6.91;80.71
36692;BME280;22678;52.052;4.242;2023-02-16T01:31:39;102363.69;;;6.84;80.78
36692;BME280;22678;52.052;4.242;2023-02-16T01:34:04;102358.28;;;6.78;80.78
36692;BME280;22678;52.052;4.242;2023-02-16T01:36:37;102360.16;;;6.82;81.05
36692;BME280;22678;52.052;4.242;2023-02-16T01:39:02;102368.09;;;6.86;81.20
36692;BME280;22678;52.052;4.242;2023-02-16T01:41:53;102361.03;;;6.83;80.97
36692;BME280;22678;52.052;4.242;2023-02-16T01:44:23;102360.06;;;6.79;81.32
36692;BME280;22678;52.052;4.242;2023-02-16T01:47:01;102356.63;;;6.80;81.26
36692;BME280;22678;52.052;4.242;2023-02-16T01:49:29;102342.44;;;6.74;81.40
36692;BME280;22678;52.052;4.242;2023-02-16T01:54:52;102351.41;;;6.80;81.65
36692;BME280;22678;52.052;4.242;2023-02-16T01:57:44;102355.72;;;6.80;81.40
36692;BME280;22678;52.052;4.242;2023-02-16T02:00:20;102347.00;;;6.79;81.42
36692;BME280;22678;52.052;4.242;2023-02-16T02:02:55;102341.53;;;6.72;81.50
36692;BME280;22678;52.052;4.242;2023-02-16T02:05:42;102350.38;;;6.77;82.06
36692;BME280;22678;52.052;4.242;2023-02-16T02:13:49;102341.06;;;6.85;81.93
36692;BME280;22678;52.052;4.242;2023-02-16T02:16:19;102345.47;;;6.86;81.94
36692;BME280;22678;52.052;4.242;2023-02-16T02:18:45;102312.94;;;6.78;81.86
36692;BME280;22678;52.052;4.242;2023-02-16T02:21:41;102323.72;;;6.89;81.91
36692;BME280;22678;52.052;4.242;2023-02-16T02:27:25;102315.81;;;6.86;81.89
36692;BME280;22678;52.052;4.242;2023-02-16T02:30:11;102322.06;;;6.91;81.89
36692;BME280;22678;52.052;4.242;2023-02-16T02:43:45;102308.13;;;6.92;81.81
36692;BME280;22678;52.052;4.242;2023-02-16T02:46:32;102313.38;;;6.92;81.82
36692;BME280;22678;52.052;4.242;2023-02-16T02:48:58;102306.28;;;6.88;81.99
36692;BME280;22678;52.052;4.242;2023-02-16T02:51:23;102285.94;;;6.77;81.84
36692;BME280;22678;52.052;4.242;2023-02-16T03:00:00;102305.53;;;6.92;81.70
36692;BME280;22678;52.052;4.242;2023-02-16T03:02:48;102295.84;;;6.88;81.67
36692;BME280;22678;52.052;4.242;2023-02-16T03:05:15;102296.72;;;6.88;81.91
36692;BME280;22678;52.052;4.242;2023-02-16T03:07:43;102297.66;;;6.92;81.55
36692;BME280;22678;52.052;4.242;2023-02-16T03:10:22;102291.59;;;6.93;81.82
36692;BME280;22678;52.052;4.242;2023-02-16T03:13:16;102296.75;;;6.90;81.52
36692;BME280;22678;52.052;4.242;2023-02-16T03:15:44;102300.34;;;6.93;81.76
36692;BME280;22678;52.052;4.242;2023-02-16T03:18:12;102296.78;;;6.91;81.50
36692;BME280;22678;52.052;4.242;2023-02-16T03:20:57;102289.78;;;6.90;81.69
36692;BME280;22678;52.052;4.242;2023-02-16T03:23:42;102292.44;;;6.92;81.72
36692;BME280;22678;52.052;4.242;2023-02-16T03:26:28;102283.75;;;6.93;81.70
36692;BME280;22678;52.052;4.242;2023-02-16T03:29:13;102287.41;;;6.98;81.47
36692;BME280;22678;52.052;4.242;2023-02-16T03:31:50;102275.09;;;6.94;81.81
36692;BME280;22678;52.052;4.242;2023-02-16T03:34:18;102285.72;;;7.00;81.55
36692;BME280;22678;52.052;4.242;2023-02-16T03:36:46;102278.72;;;6.99;81.61
36692;BME280;22678;52.052;4.242;2023-02-16T03:39:12;102277.00;;;6.99;81.54
36692;BME280;22678;52.052;4.242;2023-02-16T03:41:42;102268.16;;;6.96;81.41
36692;BME280;22678;52.052;4.242;2023-02-16T03:44:08;102278.78;;;7.02;81.94
36692;BME280;22678;52.052;4.242;2023-02-16T03:46:33;102252.28;;;6.90;81.62
36692;BME280;22678;52.052;4.242;2023-02-16T03:48:59;102263.03;;;6.99;81.50
36692;BME280;22678;52.052;4.242;2023-02-16T03:51:24;102270.94;;;7.02;81.47
36692;BME280;22678;52.052;4.242;2023-02-16T03:53:50;102257.69;;;6.96;81.32
36692;BME280;22678;52.052;4.242;2023-02-16T03:56:15;102291.13;;;7.06;81.12
36692;BME280;22678;52.052;4.242;2023-02-16T03:58:41;102295.53;;;7.07;81.22
36692;BME280;22678;52.052;4.242;2023-02-16T04:01:06;102280.59;;;7.03;81.18
36692;BME280;22678;52.052;4.242;2023-02-16T04:03:31;102275.31;;;7.01;80.98
36692;BME280;22678;52.052;4.242;2023-02-16T04:05:58;102291.31;;;7.12;80.89
36692;BME280;22678;52.052;4.242;2023-02-16T04:08:23;102282.53;;;7.10;80.98
36692;BME280;22678;52.052;4.242;2023-02-16T04:10:49;102282.44;;;7.07;80.91
36692;BME280;22678;52.052;4.242;2023-02-16T04:13:14;102282.53;;;7.10;80.80
36692;BME280;22678;52.052;4.242;2023-02-16T04:15:40;102285.19;;;7.12;80.87
36692;BME280;22678;52.052;4.242;2023-02-16T04:18:06;102279.03;;;7.10;80.96
36692;BME280;22678;52.052;4.242;2023-02-16T04:20:32;102289.66;;;7.14;80.94
36692;BME280;22678;52.052;4.242;2023-02-16T04:22:57;102288.72;;;7.14;80.94
36692;BME280;22678;52.052;4.242;2023-02-16T04:25:24;102280.84;;;7.12;81.06
36692;BME280;22678;52.052;4.242;2023-02-16T04:27:50;102272.06;;;7.10;80.57
36692;BME280;22678;52.052;4.242;2023-02-16T04:30:18;102286.22;;;7.17;80.84
36692;BME280;22678;52.052;4.242;2023-02-16T04:32:43;102287.94;;;7.16;80.79
36692;BME280;22678;52.052;4.242;2023-02-16T04:35:09;102280.84;;;7.12;80.84
36692;BME280;22678;52.052;4.242;2023-02-16T04:37:34;102276.59;;;7.16;80.91
36692;BME280;22678;52.052;4.242;2023-02-16T04:40:00;102254.38;;;7.01;80.75
36692;BME280;22678;52.052;4.242;2023-02-16T04:42:25;102261.63;;;7.10;80.80
36692;BME280;22678;52.052;4.242;2023-02-16T04:44:51;102265.22;;;7.15;80.97
36692;BME280;22678;52.052;4.242;2023-02-16T04:47:16;102264.28;;;7.12;80.97
36692;BME280;22678;52.052;4.242;2023-02-16T04:49:42;102268.78;;;7.17;80.98
36692;BME280;22678;52.052;4.242;2023-02-16T04:52:07;102256.59;;;7.18;80.78
36692;BME280;22678;52.052;4.242;2023-02-16T04:54:33;102271.41;;;7.17;81.03
36692;BME280;22678;52.052;4.242;2023-02-16T04:56:59;102268.78;;;7.17;81.08
36692;BME280;22678;52.052;4.242;2023-02-16T04:59:24;102261.78;;;7.16;80.95
36692;BME280;22678;52.052;4.242;2023-02-16T05:01:50;102266.81;;;7.09;81.16
36692;BME280;22678;52.052;4.242;2023-02-16T05:04:15;102251.91;;;7.06;81.19
36692;BME280;22678;52.052;4.242;2023-02-16T05:06:41;102252.88;;;7.10;81.12
36692;BME280;22678;52.052;4.242;2023-02-16T05:09:07;102270.59;;;7.18;81.32
36692;BME280;22678;52.052;4.242;2023-02-16T05:11:33;102267.84;;;7.15;81.63
36692;BME280;22678;52.052;4.242;2023-02-16T05:14:29;102269.75;;;7.21;81.56
36692;BME280;22678;52.052;4.242;2023-02-16T05:17:27;102267.19;;;7.23;81.57
36692;BME280;22678;52.052;4.242;2023-02-16T05:19:57;102268.97;;;7.24;81.38
36692;BME280;22678;52.052;4.242;2023-02-16T05:22:24;102268.94;;;7.22;81.54
36692;BME280;22678;52.052;4.242;2023-02-16T05:24:49;102269.88;;;7.26;81.56
36692;BME280;22678;52.052;4.242;2023-02-16T05:27:25;102258.41;;;7.21;81.62
36692;BME280;22678;52.052;4.242;2023-02-16T05:29:50;102249.66;;;7.18;81.77
36692;BME280;22678;52.052;4.242;2023-02-16T05:32:16;102255.06;;;7.25;81.90
36692;BME280;22678;52.052;4.242;2023-02-16T05:34:41;102263.06;;;7.31;81.66
36692;BME280;22678;52.052;4.242;2023-02-16T05:37:09;102240.38;;;7.31;81.95
36692;BME280;22678;52.052;4.242;2023-02-16T05:39:34;102259.66;;;7.33;82.02
36692;BME280;22678;52.052;4.242;2023-02-16T05:42:00;102241.09;;;7.26;81.86
36692;BME280;22678;52.052;4.242;2023-02-16T05:44:25;102253.44;;;7.30;81.94
36692;BME280;22678;52.052;4.242;2023-02-16T05:46:51;102251.72;;;7.30;81.96
36692;BME280;22678;52.052;4.242;2023-02-16T05:49:16;102245.63;;;7.31;82.08
36692;BME280;22678;52.052;4.242;2023-02-16T05:51:42;102252.72;;;7.35;82.31
36692;BME280;22678;52.052;4.242;2023-02-16T05:54:08;102253.44;;;7.30;82.41
36692;BME280;22678;52.052;4.242;2023-02-16T05:56:35;102256.22;;;7.36;82.45
36692;BME280;22678;52.052;4.242;2023-02-16T05:59:00;102251.75;;;7.32;82.42
36692;BME280;22678;52.052;4.242;2023-02-16T06:01:27;102263.28;;;7.39;82.63
36692;BME280;22678;52.052;4.242;2023-02-16T06:03:52;102259.78;;;7.38;82.82
36692;BME280;22678;52.052;4.242;2023-02-16T06:06:18;102265.94;;;7.40;82.60
36692;BME280;22678;52.052;4.242;2023-02-16T06:08:43;102262.47;;;7.41;82.82
36692;BME280;22678;52.052;4.242;2023-02-16T06:11:09;102254.47;;;7.35;83.14
36692;BME280;22678;52.052;4.242;2023-02-16T06:13:54;102270.34;;;7.41;83.16
36692;BME280;22678;52.052;4.242;2023-02-16T06:16:23;102265.84;;;7.37;83.30
36692;BME280;22678;52.052;4.242;2023-02-16T06:18:49;102262.31;;;7.35;83.27
36692;BME280;22678;52.052;4.242;2023-02-16T06:21:14;102264.25;;;7.42;83.50
36692;BME280;22678;52.052;4.242;2023-02-16T06:23:40;102260.63;;;7.37;83.98
36692;BME280;22678;52.052;4.242;2023-02-16T06:26:05;102280.84;;;7.43;83.53
36692;BME280;22678;52.052;4.242;2023-02-16T06:28:30;102273.03;;;7.44;83.45
36692;BME280;22678;52.052;4.242;2023-02-16T06:30:56;102266.00;;;7.43;83.64
36692;BME280;22678;52.052;4.242;2023-02-16T06:33:21;102256.22;;;7.36;83.87
36692;BME280;22678;52.052;4.242;2023-02-16T06:35:47;102274.72;;;7.42;83.83
36692;BME280;22678;52.052;4.242;2023-02-16T06:38:12;102267.72;;;7.41;83.88
36692;BME280;22678;52.052;4.242;2023-02-16T06:40:37;102265.13;;;7.43;84.00
36692;BME280;22678;52.052;4.242;2023-02-16T06:43:03;102280.03;;;7.45;84.06
36692;BME280;22678;52.052;4.242;2023-02-16T06:45:28;102282.72;;;7.47;84.25
36692;BME280;22678;52.052;4.242;2023-02-16T06:47:53;102279.28;;;7.49;84.16
36692;BME280;22678;52.052;4.242;2023-02-16T06:50:19;102282.00;;;7.52;84.36
36692;BME280;22678;52.052;4.242;2023-02-16T06:52:44;102287.22;;;7.52;84.53
36692;BME280;22678;52.052;4.242;2023-02-16T06:55:09;102275.09;;;7.56;84.75
36692;BME280;22678;52.052;4.242;2023-02-16T06:57:35;102273.22;;;7.52;84.65
36692;BME280;22678;52.052;4.242;2023-02-16T07:00:00;102266.28;;;7.52;84.75
36692;BME280;22678;52.052;4.242;2023-02-16T07:02:25;102272.50;;;7.58;84.91
36692;BME280;22678;52.052;4.242;2023-02-16T07:04:51;102279.75;;;7.66;84.78
36692;BME280;22678;52.052;4.242;2023-02-16T07:07:17;102277.84;;;7.61;84.85
36692;BME280;22678;52.052;4.242;2023-02-16T07:09:42;102284.19;;;7.69;84.95
36692;BME280;22678;52.052;4.242;2023-02-16T07:12:08;102286.84;;;7.70;85.12
36692;BME280;22678;52.052;4.242;2023-02-16T07:14:33;102288.63;;;7.71;84.65
36692;BME280;22678;52.052;4.242;2023-02-16T07:16:58;102283.34;;;7.70;84.77
36692;BME280;22678;52.052;4.242;2023-02-16T07:19:28;102284.09;;;7.66;84.85
36692;BME280;22678;52.052;4.242;2023-02-16T07:21:56;102291.19;;;7.70;84.75
36692;BME280;22678;52.052;4.242;2023-02-16T07:24:22;102297.31;;;7.70;84.91
36692;BME280;22678;52.052;4.242;2023-02-16T07:26:47;102294.72;;;7.72;84.72
36692;BME280;22678;52.052;4.242;2023-02-16T07:29:13;102305.31;;;7.77;84.97
36692;BME280;22678;52.052;4.242;2023-02-16T07:31:38;102307.06;;;7.76;85.01
36692;BME280;22678;52.052;4.242;2023-02-16T07:34:03;102316.63;;;7.76;84.91
36692;BME280;22678;52.052;4.242;2023-02-16T07:36:29;102310.47;;;7.74;84.80
36692;BME280;22678;52.052;4.242;2023-02-16T07:38:54;102304.22;;;7.68;84.92
36692;BME280;22678;52.052;4.242;2023-02-16T07:41:19;102312.16;;;7.70;84.83
36692;BME280;22678;52.052;4.242;2023-02-16T07:43:45;102306.84;;;7.68;84.77
36692;BME280;22678;52.052;4.242;2023-02-16T07:46:10;102313.91;;;7.71;85.09
36692;BME280;22678;52.052;4.242;2023-02-16T07:48:36;102324.38;;;7.71;85.07
36692;BME280;22678;52.052;4.242;2023-02-16T07:51:01;102336.75;;;7.77;85.25
36692;BME280;22678;52.052;4.242;2023-02-16T07:53:26;102339.28;;;7.74;85.60
36692;BME280;22678;52.052;4.242;2023-02-16T07:55:52;102336.53;;;7.69;85.71
36692;BME280;22678;52.052;4.242;2023-02-16T07:58:17;102332.19;;;7.69;86.08
36692;BME280;22678;52.052;4.242;2023-02-16T08:01:09;102344.41;;;7.69;86.17
36692;BME280;22678;52.052;4.242;2023-02-16T08:03:35;102341.63;;;7.63;86.50
36692;BME280;22678;52.052;4.242;2023-02-16T08:06:01;102343.41;;;7.65;86.76
36692;BME280;22678;52.052;4.242;2023-02-16T08:08:26;102341.53;;;7.60;87.20
36692;BME280;22678;52.052;4.242;2023-02-16T08:10:52;102345.00;;;7.59;87.60
36692;BME280;22678;52.052;4.242;2023-02-16T08:13:17;102344.91;;;7.56;87.92
36692;BME280;22678;52.052;4.242;2023-02-16T08:15:42;102350.31;;;7.62;88.38
36692;BME280;22678;52.052;4.242;2023-02-16T08:18:08;102330.91;;;7.55;88.84
36692;BME280;22678;52.052;4.242;2023-02-16T08:20:34;102312.25;;;7.43;89.08
36692;BME280;22678;52.052;4.242;2023-02-16T08:22:59;102340.50;;;7.54;89.28
36692;BME280;22678;52.052;4.242;2023-02-16T08:25:24;102343.13;;;7.54;89.77
36692;BME280;22678;52.052;4.242;2023-02-16T08:27:50;102344.88;;;7.54;90.25
36692;BME280;22678;52.052;4.242;2023-02-16T08:30:15;102342.34;;;7.57;90.54
36692;BME280;22678;52.052;4.242;2023-02-16T08:32:42;102345.06;;;7.62;90.88
36692;BME280;22678;52.052;4.242;2023-02-16T08:35:08;102346.94;;;7.66;91.15
36692;BME280;22678;52.052;4.242;2023-02-16T08:37:36;102340.78;;;7.65;91.65
36692;BME280;22678;52.052;4.242;2023-02-16T08:40:02;102338.13;;;7.64;91.83
36692;BME280;22678;52.052;4.242;2023-02-16T08:42:28;102348.88;;;7.73;91.88
36692;BME280;22678;52.052;4.242;2023-02-16T08:44:54;102341.94;;;7.75;92.29
36692;BME280;22678;52.052;4.242;2023-02-16T08:47:19;102338.44;;;7.75;92.62
36692;BME280;22678;52.052;4.242;2023-02-16T08:49:45;102342.97;;;7.80;92.43
36692;BME280;22678;52.052;4.242;2023-02-16T08:52:11;102343.88;;;7.82;92.53
36692;BME280;22678;52.052;4.242;2023-02-16T08:54:37;102329.81;;;7.79;92.71
36692;BME280;22678;52.052;4.242;2023-02-16T08:57:03;102333.41;;;7.82;92.70
36692;BME280;22678;52.052;4.242;2023-02-16T08:59:28;102335.13;;;7.80;92.75
36692;BME280;22678;52.052;4.242;2023-02-16T09:01:55;102333.47;;;7.84;92.92
36692;BME280;22678;52.052;4.242;2023-02-16T09:04:22;102322.97;;;7.84;93.04
36692;BME280;22678;52.052;4.242;2023-02-16T09:06:48;102330.91;;;7.87;93.23
36692;BME280;22678;52.052;4.242;2023-02-16T09:09:15;102322.91;;;7.81;93.36
36692;BME280;22678;52.052;4.242;2023-02-16T09:11:40;102340.69;;;7.93;93.29
36692;BME280;22678;52.052;4.242;2023-02-16T09:14:06;102333.72;;;7.95;93.32
36692;BME280;22678;52.052;4.242;2023-02-16T09:16:33;102316.06;;;7.87;93.19
36692;BME280;22678;52.052;4.242;2023-02-16T09:19:02;102323.25;;;7.95;93.28
36692;BME280;22678;52.052;4.242;2023-02-16T09:21:29;102328.66;;;8.01;93.55
36692;BME280;22678;52.052;4.242;2023-02-16T09:24:00;102317.44;;;8.06;93.67
36692;BME280;22678;52.052;4.242;2023-02-16T09:26:27;102331.00;;;8.23;94.18
36692;BME280;22678;52.052;4.242;2023-02-16T09:28:54;102322.72;;;8.43;94.29
36692;BME280;22678;52.052;4.242;2023-02-16T09:33:51;102319.22;;;8.77;94.13
36692;BME280;22678;52.052;4.242;2023-02-16T09:36:17;102310.59;;;8.85;93.71
36692;BME280;22678;52.052;4.242;2023-02-16T09:38:43;102318.69;;;8.92;93.34
36692;BME280;22678;52.052;4.242;2023-02-16T09:46:55;102282.69;;;8.87;93.01
36692;BME280;22678;52.052;4.242;2023-02-16T09:49:29;102313.50;;;8.96;92.99
36692;BME280;22678;52.052;4.242;2023-02-16T09:52:12;102302.19;;;8.98;93.02
36692;BME280;22678;52.052;4.242;2023-02-16T09:54:49;102311.78;;;8.98;93.09
36692;BME280;22678;52.052;4.242;2023-02-16T09:57:34;102287.97;;;8.88;93.07
36692;BME280;22678;52.052;4.242;2023-02-16T10:05:28;102286.34;;;8.95;93.11
36692;BME280;22678;52.052;4.242;2023-02-16T10:08:06;102292.69;;;9.05;92.96
36692;BME280;22678;52.052;4.242;2023-02-16T10:10:47;102287.56;;;9.11;93.18
36692;BME280;22678;52.052;4.242;2023-02-16T10:13:26;102296.31;;;9.10;93.07
36692;BME280;22678;52.052;4.242;2023-02-16T10:15:55;102297.31;;;9.17;93.14
36692;BME280;22678;52.052;4.242;2023-02-16T10:18:36;102290.38;;;9.19;93.22
36692;BME280;22678;52.052;4.242;2023-02-16T10:21:07;102267.56;;;9.16;92.97
36692;BME280;22678;52.052;4.242;2023-02-16T10:23:45;102294.09;;;9.30;93.07
36692;BME280;22678;52.052;4.242;2023-02-16T10:29:17;102299.72;;;9.49;93.33
36692;BME280;22678;52.052;4.242;2023-02-16T10:31:50;102303.38;;;9.57;93.09
36692;BME280;22678;52.052;4.242;2023-02-16T10:40:07;102311.56;;;9.74;92.71
36692;BME280;22678;52.052;4.242;2023-02-16T10:42:51;102316.94;;;9.80;92.41
36692;BME280;22678;52.052;4.242;2023-02-16T10:45:37;102300.34;;;9.82;92.68
36692;BME280;22678;52.052;4.242;2023-02-16T10:48:08;102303.13;;;9.90;92.33
36692;BME280;22678;52.052;4.242;2023-02-16T10:50:41;102309.34;;;9.94;92.27
36692;BME280;22678;52.052;4.242;2023-02-16T10:53:18;102295.22;;;9.89;92.09
36692;BME280;22678;52.052;4.242;2023-02-16T10:55:45;102294.44;;;9.94;91.67
36692;BME280;22678;52.052;4.242;2023-02-16T10:58:25;102280.31;;;9.89;91.85
36692;BME280;22678;52.052;4.242;2023-02-16T11:03:28;102278.66;;;9.94;91.30
36692;BME280;22678;52.052;4.242;2023-02-16T11:05:54;102283.19;;;10.02;91.28
36692;BME280;22678;52.052;4.242;2023-02-16T11:08:20;102280.53;;;10.02;91.06
36692;BME280;22678;52.052;4.242;2023-02-16T11:10:50;102286.00;;;10.14;91.12
36692;BME280;22678;52.052;4.242;2023-02-16T11:13:28;102288.88;;;10.28;91.21
36692;BME280;22678;52.052;4.242;2023-02-16T11:15:59;102293.44;;;10.37;90.64
36692;BME280;22678;52.052;4.242;2023-02-16T11:18:35;102290.91;;;10.43;89.90
36692;BME280;22678;52.052;4.242;2023-02-16T11:21:02;102287.47;;;10.47;89.53
36692;BME280;22678;52.052;4.242;2023-02-16T11:23:36;102284.81;;;10.47;89.24
36692;BME280;22678;52.052;4.242;2023-02-16T11:26:20;102286.69;;;10.54;88.59
36692;BME280;22678;52.052;4.242;2023-02-16T11:28:48;102290.25;;;10.59;88.29
36692;BME280;22678;52.052;4.242;2023-02-16T11:34:02;102270.22;;;10.67;86.74
36692;BME280;22678;52.052;4.242;2023-02-16T11:36:32;102282.66;;;10.79;86.48
36692;BME280;22678;52.052;4.242;2023-02-16T11:39:25;102276.66;;;10.90;86.04
36692;BME280;22678;52.052;4.242;2023-02-16T11:41:57;102266.34;;;11.07;85.91
36692;BME280;22678;52.052;4.242;2023-02-16T11:46:51;102260.63;;;11.43;84.51
36692;BME280;22678;52.052;4.242;2023-02-16T11:51:51;102251.00;;;11.47;82.91
36692;BME280;22678;52.052;4.242;2023-02-16T11:54:17;102246.63;;;11.47;82.48
36692;BME280;22678;52.052;4.242;2023-02-16T11:56:43;102233.50;;;11.52;82.13
36692;BME280;22678;52.052;4.242;2023-02-16T11:59:20;102242.34;;;11.58;81.90
36692;BME280;22678;52.052;4.242;2023-02-16T12:01:49;102232.75;;;11.65;81.43
36692;BME280;22678;52.052;4.242;2023-02-16T12:04:40;102236.34;;;11.70;80.21
36692;BME280;22678;52.052;4.242;2023-02-16T12:10:11;102223.03;;;11.61;79.91
36692;BME280;22678;52.052;4.242;2023-02-16T12:13:44;102219.53;;;11.61;80.02
36692;BME280;22678;52.052;4.242;2023-02-16T12:21:48;102221.44;;;11.75;79.98
36692;BME280;22678;52.052;4.242;2023-02-16T12:27:00;102210.00;;;11.72;79.54
36692;BME280;22678;52.052;4.242;2023-02-16T12:38:16;102193.41;;;11.87;78.53
36692;BME280;22678;52.052;4.242;2023-02-16T12:45:48;102201.34;;;11.91;77.32
36692;BME280;22678;52.052;4.242;2023-02-16T12:50:52;102181.03;;;11.77;77.18
36692;BME280;22678;52.052;4.242;2023-02-16T12:53:37;102184.56;;;11.79;77.26
36692;BME280;22678;52.052;4.242;2023-02-16T12:56:11;102169.53;;;11.68;77.65
36692;BME280;22678;52.052;4.242;2023-02-16T12:58:41;102163.44;;;11.72;77.71
36692;BME280;22678;52.052;4.242;2023-02-16T13:01:19;102158.19;;;11.79;77.66
36692;BME280;22678;52.052;4.242;2023-02-16T13:06:51;102158.22;;;11.80;77.84
36692;BME280;22678;52.052;4.242;2023-02-16T13:09:35;102159.97;;;11.80;77.62
36692;BME280;22678;52.052;4.242;2023-02-16T13:14:32;102155.53;;;11.75;77.28
36692;BME280;22678;52.052;4.242;2023-02-16T13:18:00;102151.13;;;11.73;77.00
36692;BME280;22678;52.052;4.242;2023-02-16T13:19:53;102142.31;;;11.66;77.12
36692;BME280;22678;52.052;4.242;2023-02-16T13:22:35;102144.03;;;11.64;76.99
36692;BME280;22678;52.052;4.242;2023-02-16T13:39:19;102125.50;;;11.55;77.36
36692;BME280;22678;52.052;4.242;2023-02-16T13:46:55;102108.88;;;11.59;77.76
36692;BME280;22678;52.052;4.242;2023-02-16T13:49:38;102096.56;;;11.58;77.35
36692;BME280;22678;52.052;4.242;2023-02-16T13:52:08;102108.03;;;11.63;77.15
36692;BME280;22678;52.052;4.242;2023-02-16T13:54:39;102092.22;;;11.62;76.96
36692;BME280;22678;52.052;4.242;2023-02-16T13:57:14;102075.41;;;11.46;76.55
36692;BME280;22678;52.052;4.242;2023-02-16T14:00:02;102106.25;;;11.62;76.42
36692;BME280;22678;52.052;4.242;2023-02-16T14:03:08;102094.84;;;11.60;76.70
36692;BME280;22678;52.052;4.242;2023-02-16T14:05:37;102091.28;;;11.58;76.72
36692;BME280;22678;52.052;4.242;2023-02-16T14:13:19;102070.09;;;11.39;77.78
36692;BME280;22678;52.052;4.242;2023-02-16T14:15:51;102074.47;;;11.40;78.59
36692;BME280;22678;52.052;4.242;2023-02-16T14:21:00;102074.38;;;11.30;79.76
36692;BME280;22678;52.052;4.242;2023-02-16T14:23:28;102076.09;;;11.28;80.58
36692;BME280;22678;52.052;4.242;2023-02-16T14:26:06;102079.56;;;11.20;81.28
36692;BME280;22678;52.052;4.242;2023-02-16T14:31:00;102068.88;;;11.03;82.34
36692;BME280;22678;52.052;4.242;2023-02-16T14:38:42;102067.88;;;10.92;83.52
36692;BME280;22678;52.052;4.242;2023-02-16T14:43:48;102082.81;;;10.93;83.38
36692;BME280;22678;52.052;4.242;2023-02-16T14:46:39;102062.53;;;10.83;84.09
36692;BME280;22678;52.052;4.242;2023-02-16T15:00:27;102076.47;;;10.73;85.45
36692;BME280;22678;52.052;4.242;2023-02-16T15:02:59;102073.81;;;10.71;85.87
36692;BME280;22678;52.052;4.242;2023-02-16T15:05:28;102057.03;;;10.61;86.45
36692;BME280;22678;52.052;4.242;2023-02-16T15:08:17;102061.41;;;10.61;87.08
36692;BME280;22678;52.052;4.242;2023-02-16T15:10:46;102064.91;;;10.61;87.49
36692;BME280;22678;52.052;4.242;2023-02-16T15:13:25;102064.84;;;10.55;88.02
36692;BME280;22678;52.052;4.242;2023-02-16T15:15:53;102069.25;;;10.56;88.70
36692;BME280;22678;52.052;4.242;2023-02-16T15:18:45;102069.22;;;10.53;89.25
36692;BME280;22678;52.052;4.242;2023-02-16T15:21:21;102070.94;;;10.51;89.47
36692;BME280;22678;52.052;4.242;2023-02-16T15:23:51;102063.88;;;10.44;89.87
36692;BME280;22678;52.052;4.242;2023-02-16T15:26:19;102063.88;;;10.44;90.30
36692;BME280;22678;52.052;4.242;2023-02-16T15:31:40;102069.94;;;10.40;90.69
36692;BME280;22678;52.052;4.242;2023-02-16T15:34:11;102074.31;;;10.41;90.94
36692;BME280;22678;52.052;4.242;2023-02-16T15:36:42;102082.28;;;10.44;91.53
36692;BME280;22678;52.052;4.242;2023-02-16T15:39:30;102075.22;;;10.40;92.11
36692;BME280;22678;52.052;4.242;2023-02-16T15:42:16;102072.53;;;10.37;92.44
36692;BME280;22678;52.052;4.242;2023-02-16T15:44:43;102073.31;;;10.31;93.38